Decoded Metar for K7N0 ( in ) (IATA:) | Meteo·Mobile Aviation Weather
aviador You're here:

K7N0 Decoded Metar

in
Report Time2019-10-22 13:56:00
UTC Time2019-10-22 14:14:05
Flight Rules vfr VFR
Wind010° at 08 Gusting to 16 kt
Visibility9999 m
Phenomena:N/A
Clouds:N/A
Expected CloudBase > 3,600 ft AGL from Temp-Dew spread
CeilingNone
Temp20°C
Dew Point11°C (56% RH)
AAT17.4°C
QNH1021 hPa
Raw Report
K7N0 221356Z AUTO 01008G16KT 10SM CLR 20/11 A3014 RMK AO2 SLP207
T02000106=

Extra information for K7N0:More info

Social comments